createdAt,value
2019-04-26T00:01:07.696Z,15.90
2019-04-26T00:03:43.570Z,16.00
2019-04-26T00:06:14.709Z,16.00
2019-04-26T00:08:50.941Z,16.00
2019-04-26T00:11:36.005Z,16.10
2019-04-26T00:14:31.111Z,16.10
2019-04-26T00:17:05.581Z,16.10
2019-04-26T00:19:36.502Z,16.20
2019-04-26T00:22:07.475Z,16.20
2019-04-26T00:24:38.171Z,16.20
2019-04-26T00:27:08.763Z,16.20
2019-04-26T00:29:40.711Z,16.20
2019-04-26T00:32:12.176Z,16.20
2019-04-26T00:34:43.664Z,16.20
2019-04-26T00:37:14.357Z,16.20
2019-04-26T00:39:45.774Z,16.20
2019-04-26T00:42:16.863Z,16.10
2019-04-26T00:44:48.238Z,16.10
2019-04-26T00:47:21.099Z,16.00
2019-04-26T00:49:53.522Z,15.90
2019-04-26T00:52:25.694Z,15.80
2019-04-26T00:54:57.090Z,15.70
2019-04-26T00:57:29.854Z,15.60
2019-04-26T01:00:00.791Z,15.50
2019-04-26T01:02:37.070Z,15.60
2019-04-26T01:05:07.818Z,15.40
2019-04-26T01:07:38.447Z,15.40
2019-04-26T01:10:09.123Z,15.40
2019-04-26T01:12:39.723Z,15.50
2019-04-26T01:15:10.338Z,15.50
2019-04-26T01:17:40.912Z,15.50
2019-04-26T01:20:12.338Z,15.60
2019-04-26T01:22:47.664Z,15.60
2019-04-26T01:25:40.534Z,15.60
2019-04-26T01:28:18.099Z,15.70
2019-04-26T01:30:49.087Z,15.70
2019-04-26T01:33:20.137Z,15.70
2019-04-26T01:35:51.783Z,15.70
2019-04-26T01:38:23.689Z,15.60
2019-04-26T01:40:56.867Z,15.50
2019-04-26T01:43:42.127Z,15.40
2019-04-26T01:46:20.641Z,15.40
2019-04-26T01:49:02.385Z,15.30
2019-04-26T01:52:00.176Z,15.20
2019-04-26T01:54:36.330Z,15.20
2019-04-26T01:57:07.827Z,15.10
2019-04-26T01:59:42.988Z,15.00
2019-04-26T02:02:24.063Z,14.90
2019-04-26T02:04:56.463Z,14.70
2019-04-26T02:10:15.169Z,14.60
2019-04-26T02:12:47.772Z,14.50
2019-04-26T02:15:21.156Z,14.30
2019-04-26T02:17:53.532Z,14.30
2019-04-26T02:21:08.978Z,14.20
2019-04-26T02:23:58.778Z,14.10
2019-04-26T02:26:32.909Z,14.20
2019-04-26T02:29:06.778Z,14.20
2019-04-26T02:31:38.428Z,14.40
2019-04-26T02:34:09.809Z,14.50
2019-04-26T02:36:56.037Z,14.50
2019-04-26T02:39:22.513Z,14.60
2019-04-26T02:41:56.838Z,14.70
2019-04-26T02:44:39.607Z,14.70
2019-04-26T02:47:35.075Z,14.70
2019-04-26T02:50:09.118Z,14.80
2019-04-26T02:53:02.253Z,14.80
2019-04-26T02:56:07.856Z,14.70
2019-04-26T02:58:46.861Z,14.60
2019-04-26T03:01:17.772Z,14.50
2019-04-26T03:03:48.222Z,14.40
2019-04-26T03:06:19.310Z,14.40
2019-04-26T03:08:51.435Z,14.20
2019-04-26T03:11:24.425Z,14.20
2019-04-26T03:14:19.376Z,14.00
2019-04-26T03:17:07.270Z,14.00
2019-04-26T03:19:47.751Z,13.90
2019-04-26T03:22:47.655Z,14.00
2019-04-26T03:25:36.958Z,13.90
2019-04-26T03:28:25.385Z,13.80
2019-04-26T03:31:07.513Z,13.80
2019-04-26T03:34:06.449Z,13.80
2019-04-26T03:37:19.525Z,13.70
2019-04-26T03:39:53.109Z,13.70
2019-04-26T03:43:03.116Z,13.70
2019-04-26T03:45:55.339Z,13.60
2019-04-26T03:49:13.659Z,13.70
2019-04-26T03:52:12.124Z,13.70
2019-04-26T03:54:45.575Z,13.70
2019-04-26T03:57:46.251Z,13.80
2019-04-26T04:00:39.489Z,13.80
2019-04-26T04:03:22.692Z,13.90
2019-04-26T04:05:56.747Z,13.80
2019-04-26T04:08:39.767Z,13.90
2019-04-26T04:11:13.406Z,13.90
2019-04-26T04:13:55.505Z,14.00
2019-04-26T04:16:39.327Z,14.20
2019-04-26T04:19:27.098Z,14.20
2019-04-26T04:22:03.806Z,14.40
2019-04-26T04:24:48.722Z,14.50
2019-04-26T04:27:43.896Z,14.80
2019-04-26T04:30:41.537Z,15.10
2019-04-26T04:33:42.658Z,15.40
2019-04-26T04:36:23.061Z,15.50
2019-04-26T04:39:12.272Z,15.70
2019-04-26T04:42:31.365Z,15.80
2019-04-26T04:45:53.018Z,15.90
2019-04-26T04:48:42.367Z,16.00
2019-04-26T04:51:36.211Z,16.20
2019-04-26T04:54:21.988Z,16.40
2019-04-26T04:57:39.360Z,16.90
2019-04-26T05:00:55.354Z,17.40
2019-04-26T05:03:42.332Z,18.10
2019-04-26T05:06:29.350Z,18.90
2019-04-26T05:09:08.243Z,19.40
2019-04-26T05:12:20.766Z,20.00
2019-04-26T05:15:34.740Z,20.30
2019-04-26T05:18:49.037Z,20.90
2019-04-26T05:21:53.403Z,21.10
2019-04-26T05:24:49.637Z,21.60
2019-04-26T05:28:09.523Z,22.00
2019-04-26T05:31:32.811Z,22.60
2019-04-26T05:34:16.500Z,23.00
2019-04-26T05:37:19.603Z,22.90
2019-04-26T05:40:03.059Z,23.00
2019-04-26T05:43:07.869Z,22.70
2019-04-26T05:46:50.229Z,22.60
2019-04-26T05:50:38.993Z,22.70
2019-04-26T05:53:52.853Z,22.90
2019-04-26T05:57:02.580Z,23.50
2019-04-26T05:59:53.493Z,24.00
2019-04-26T06:03:04.533Z,24.40
2019-04-26T06:06:11.571Z,24.60
2019-04-26T06:09:37.562Z,25.00
2019-04-26T06:12:35.149Z,25.40
2019-04-26T06:15:41.232Z,25.60
2019-04-26T06:18:57.479Z,25.70
2019-04-26T06:22:04.530Z,26.20
2019-04-26T06:24:44.004Z,26.20
2019-04-26T06:27:53.518Z,26.20
2019-04-26T06:30:49.820Z,25.80
2019-04-26T06:33:46.612Z,25.70
2019-04-26T06:36:30.416Z,25.80
2019-04-26T06:39:28.837Z,26.10
2019-04-26T06:42:49.310Z,26.50
2019-04-26T06:46:00.586Z,26.90
2019-04-26T06:48:59.586Z,27.80
2019-04-26T06:51:36.086Z,28.60
2019-04-26T06:54:16.162Z,29.30
2019-04-26T06:57:18.691Z,29.70
2019-04-26T07:00:02.351Z,30.00
2019-04-26T07:02:57.498Z,29.90
2019-04-26T07:05:32.297Z,30.10
2019-04-26T07:08:32.189Z,30.50
2019-04-26T07:11:23.091Z,30.30
2019-04-26T07:14:28.781Z,30.20
2019-04-26T07:17:13.899Z,30.00
2019-04-26T07:20:44.013Z,29.70
2019-04-26T07:23:57.095Z,29.70
2019-04-26T07:27:02.963Z,29.60
2019-04-26T07:30:07.399Z,29.20
2019-04-26T07:33:08.337Z,28.80
2019-04-26T07:36:22.083Z,28.80
2019-04-26T07:39:35.014Z,29.00
2019-04-26T07:42:55.244Z,29.30
2019-04-26T07:45:48.092Z,29.50
2019-04-26T07:48:53.263Z,30.00
2019-04-26T07:52:14.186Z,30.40
2019-04-26T07:55:12.863Z,30.70
2019-04-26T07:58:22.837Z,30.90
2019-04-26T08:01:10.410Z,31.00
2019-04-26T08:03:53.176Z,30.90
2019-04-26T08:06:38.480Z,30.90
2019-04-26T08:09:25.121Z,30.70
2019-04-26T08:11:50.573Z,30.80
2019-04-26T08:14:35.931Z,31.00
2019-04-26T08:17:47.749Z,31.20
2019-04-26T08:20:48.383Z,30.90
2019-04-26T08:23:39.656Z,30.60
2019-04-26T08:26:06.563Z,30.40
2019-04-26T08:28:40.687Z,30.50
2019-04-26T08:31:15.608Z,30.60
2019-04-26T08:33:53.320Z,30.70
2019-04-26T08:36:28.628Z,30.60
2019-04-26T08:39:00.829Z,30.70
2019-04-26T08:41:35.193Z,30.70
2019-04-26T08:44:14.751Z,30.80
2019-04-26T08:47:13.908Z,31.00
2019-04-26T08:50:09.725Z,31.00
2019-04-26T08:52:40.040Z,30.90
2019-04-26T08:55:11.625Z,30.70
2019-04-26T08:57:45.213Z,30.80
2019-04-26T09:00:52.648Z,30.80
2019-04-26T09:03:36.353Z,30.80
2019-04-26T09:06:20.702Z,30.80
2019-04-26T09:08:54.113Z,30.70
2019-04-26T09:11:33.466Z,30.70
2019-04-26T09:14:02.124Z,30.60
2019-04-26T09:16:32.744Z,30.50
2019-04-26T09:19:03.389Z,30.50
2019-04-26T09:21:51.835Z,30.40
2019-04-26T09:24:35.380Z,30.30
2019-04-26T09:27:20.943Z,30.20
2019-04-26T09:30:00.613Z,30.00
2019-04-26T09:32:39.235Z,29.90
2019-04-26T09:35:11.202Z,29.80
2019-04-26T09:37:42.485Z,29.80
2019-04-26T09:40:21.027Z,29.80
2019-04-26T09:43:14.984Z,29.90
2019-04-26T09:45:59.671Z,29.80
2019-04-26T09:48:40.790Z,29.80
2019-04-26T09:51:11.384Z,29.90
2019-04-26T09:53:43.516Z,29.90
2019-04-26T09:56:14.303Z,29.90
2019-04-26T09:58:44.814Z,29.90
2019-04-26T10:01:15.565Z,29.80
2019-04-26T10:03:46.143Z,29.70
2019-04-26T10:06:17.608Z,29.60
2019-04-26T10:08:48.326Z,29.40
2019-04-26T10:11:20.641Z,29.40
2019-04-26T10:14:10.226Z,29.30
2019-04-26T10:16:58.598Z,29.30
2019-04-26T10:20:03.051Z,29.10
2019-04-26T10:22:33.990Z,29.10
2019-04-26T10:25:08.022Z,29.10
2019-04-26T10:27:40.845Z,29.00
2019-04-26T10:30:11.867Z,29.00
2019-04-26T10:32:42.497Z,28.90
2019-04-26T10:35:13.397Z,28.90
2019-04-26T10:37:47.961Z,28.90
2019-04-26T10:40:16.385Z,28.90
2019-04-26T10:42:46.994Z,28.80
2019-04-26T10:45:18.431Z,28.80
2019-04-26T10:47:49.093Z,28.80
2019-04-26T10:50:19.708Z,28.80
2019-04-26T10:52:55.745Z,28.90
2019-04-26T10:56:03.473Z,28.90
2019-04-26T10:58:58.809Z,28.80
2019-04-26T11:01:30.538Z,28.80
2019-04-26T11:04:01.139Z,28.80
2019-04-26T11:06:31.688Z,28.70
2019-04-26T11:09:02.409Z,28.80
2019-04-26T11:11:35.107Z,28.80
2019-04-26T11:14:05.757Z,28.80
2019-04-26T11:16:37.121Z,28.70
2019-04-26T11:19:08.434Z,28.60
2019-04-26T11:21:39.030Z,28.50
2019-04-26T11:24:09.692Z,28.50
2019-04-26T11:26:40.338Z,28.30
2019-04-26T11:29:11.052Z,28.20
2019-04-26T11:31:41.596Z,28.20
2019-04-26T11:34:12.203Z,28.20
2019-04-26T11:36:43.218Z,28.20
2019-04-26T11:39:15.855Z,28.20
2019-04-26T11:41:46.461Z,28.10
2019-04-26T11:44:16.978Z,28.10
2019-04-26T11:46:47.759Z,28.10
2019-04-26T11:49:19.592Z,28.10
2019-04-26T11:51:50.136Z,28.10
2019-04-26T11:54:22.234Z,28.10
2019-04-26T11:56:52.776Z,28.20
2019-04-26T11:59:23.239Z,28.20
2019-04-26T12:01:55.396Z,28.20
2019-04-26T12:04:55.092Z,28.20
2019-04-26T12:07:28.394Z,28.20
2019-04-26T12:10:00.585Z,28.20
2019-04-26T12:12:31.617Z,28.20
2019-04-26T12:15:03.823Z,28.20
2019-04-26T12:17:36.801Z,28.20
2019-04-26T12:20:07.697Z,28.30
2019-04-26T12:22:39.384Z,28.40
2019-04-26T12:25:10.529Z,28.40
2019-04-26T12:27:41.390Z,28.40
2019-04-26T12:30:12.396Z,28.40
2019-04-26T12:32:43.007Z,28.40
2019-04-26T12:35:13.778Z,28.30
2019-04-26T12:37:44.426Z,28.30
2019-04-26T12:40:15.297Z,28.30
2019-04-26T12:42:47.348Z,28.20
2019-04-26T12:45:51.419Z,28.20
2019-04-26T12:48:22.284Z,28.20
2019-04-26T12:50:52.906Z,28.20
2019-04-26T12:53:26.746Z,28.20
2019-04-26T12:55:58.274Z,28.10
2019-04-26T12:58:27.762Z,28.20
2019-04-26T13:00:59.587Z,28.10
2019-04-26T13:03:30.429Z,28.20
2019-04-26T13:06:01.169Z,28.20
2019-04-26T13:08:31.944Z,28.30
2019-04-26T13:11:21.480Z,28.20
2019-04-26T13:14:08.800Z,28.30
2019-04-26T13:16:50.952Z,28.30
2019-04-26T13:19:21.551Z,28.30
2019-04-26T13:21:52.076Z,28.20
2019-04-26T13:24:23.619Z,28.20
2019-04-26T13:26:54.652Z,28.10
2019-04-26T13:29:27.297Z,28.20
2019-04-26T13:31:57.541Z,28.10
2019-04-26T13:34:28.033Z,28.10
2019-04-26T13:36:59.205Z,28.00
2019-04-26T13:39:29.699Z,27.90
2019-04-26T13:42:04.520Z,27.90
2019-04-26T13:44:59.536Z,27.80
2019-04-26T13:47:51.896Z,27.80
2019-04-26T13:50:30.857Z,27.70
2019-04-26T13:53:01.567Z,27.60
2019-04-26T13:55:33.779Z,27.60
2019-04-26T13:58:04.411Z,27.60
2019-04-26T14:00:35.076Z,27.50
2019-04-26T14:03:05.601Z,27.50
2019-04-26T14:05:36.278Z,27.50
2019-04-26T14:08:06.832Z,27.50
2019-04-26T14:10:37.530Z,27.50
2019-04-26T14:13:08.209Z,27.60
2019-04-26T14:15:39.541Z,27.60
2019-04-26T14:18:11.007Z,27.60
2019-04-26T14:20:41.628Z,27.70
2019-04-26T14:23:27.581Z,27.70
2019-04-26T14:26:05.254Z,27.70
2019-04-26T14:28:36.766Z,27.70
2019-04-26T14:31:07.445Z,27.70
2019-04-26T14:33:38.113Z,27.70
2019-04-26T14:36:17.653Z,27.70
2019-04-26T14:38:41.411Z,27.70
2019-04-26T14:41:13.467Z,27.80
2019-04-26T14:43:44.243Z,27.90
2019-04-26T14:46:16.301Z,27.80
2019-04-26T14:49:00.603Z,27.80
2019-04-26T14:51:19.360Z,27.80
2019-04-26T14:53:50.084Z,27.80
2019-04-26T14:56:20.674Z,27.80
2019-04-26T14:58:52.256Z,27.70
2019-04-26T15:01:42.970Z,27.60
2019-04-26T15:04:37.155Z,27.70
2019-04-26T15:07:07.761Z,27.60
2019-04-26T15:09:38.409Z,27.60
2019-04-26T15:12:12.497Z,27.50
2019-04-26T15:14:42.246Z,27.50
2019-04-26T15:17:16.396Z,27.50
2019-04-26T15:19:47.202Z,27.40
2019-04-26T15:22:17.155Z,27.40
2019-04-26T15:24:47.863Z,27.40
2019-04-26T15:27:18.581Z,27.30
2019-04-26T15:29:49.391Z,27.30
2019-04-26T15:32:19.915Z,27.30
2019-04-26T15:34:50.559Z,27.20
2019-04-26T15:37:25.088Z,27.20
2019-04-26T15:40:27.412Z,27.10
2019-04-26T15:43:14.594Z,27.10
2019-04-26T15:45:50.088Z,27.10
2019-04-26T15:48:54.597Z,27.10
2019-04-26T15:51:27.434Z,27.00
2019-04-26T15:53:57.918Z,27.00
2019-04-26T15:56:28.531Z,27.00
2019-04-26T15:58:59.160Z,26.90
2019-04-26T16:01:29.772Z,26.90
2019-04-26T16:04:00.310Z,26.80
2019-04-26T16:06:32.239Z,26.80
2019-04-26T16:09:03.445Z,26.70
2019-04-26T16:11:35.892Z,26.70
2019-04-26T16:14:06.594Z,26.60
2019-04-26T16:16:38.313Z,26.50
2019-04-26T16:19:08.842Z,26.50
2019-04-26T16:21:39.674Z,26.40
2019-04-26T16:24:10.345Z,26.40
2019-04-26T16:26:47.694Z,26.30
2019-04-26T16:29:42.067Z,26.20
2019-04-26T16:32:54.315Z,26.20
2019-04-26T16:35:28.041Z,26.10
2019-04-26T16:37:59.834Z,26.00
2019-04-26T16:40:27.601Z,26.00
2019-04-26T16:42:59.800Z,26.00
2019-04-26T16:45:32.677Z,25.90
2019-04-26T16:48:02.949Z,25.90
2019-04-26T16:50:38.177Z,25.90
2019-04-26T16:53:05.709Z,25.80
2019-04-26T16:55:48.001Z,25.80
2019-04-26T16:58:08.551Z,25.70
2019-04-26T17:00:50.250Z,25.70
2019-04-26T17:03:11.430Z,25.60
2019-04-26T17:05:48.463Z,25.60
2019-04-26T17:08:18.967Z,25.50
2019-04-26T17:10:47.691Z,25.50
2019-04-26T17:13:19.033Z,25.40
2019-04-26T17:15:52.029Z,25.40
2019-04-26T17:18:26.860Z,25.40
2019-04-26T17:20:55.583Z,25.30
2019-04-26T17:23:48.179Z,25.20
2019-04-26T17:26:43.671Z,25.10
2019-04-26T17:29:14.258Z,25.10
2019-04-26T17:31:44.846Z,25.00
2019-04-26T17:34:15.440Z,25.00
2019-04-26T17:36:46.407Z,24.90
2019-04-26T17:39:18.964Z,24.90
2019-04-26T17:41:53.099Z,24.80
2019-04-26T17:44:26.696Z,24.70
2019-04-26T17:46:57.054Z,24.60
2019-04-26T17:49:28.749Z,24.50
2019-04-26T17:52:00.344Z,24.50
2019-04-26T17:54:43.806Z,24.40
2019-04-26T17:57:04.189Z,24.40
2019-04-26T17:59:36.760Z,24.30
2019-04-26T18:02:19.752Z,24.30
2019-04-26T18:04:42.468Z,24.20
2019-04-26T18:07:34.706Z,24.20
2019-04-26T18:09:46.756Z,24.20
2019-04-26T18:12:16.464Z,24.10
2019-04-26T18:14:47.207Z,24.10
2019-04-26T18:17:44.186Z,24.00
2019-04-26T18:20:37.472Z,24.00
2019-04-26T18:23:17.007Z,23.90
2019-04-26T18:25:45.075Z,23.90
2019-04-26T18:28:16.624Z,23.80
2019-04-26T18:30:47.750Z,23.80
2019-04-26T18:33:24.124Z,23.70
2019-04-26T18:35:55.862Z,23.60
2019-04-26T18:38:24.822Z,23.50
2019-04-26T18:41:00.924Z,23.50
2019-04-26T18:43:27.820Z,23.40
2019-04-26T18:46:03.324Z,23.30
2019-04-26T18:48:38.914Z,23.30
2019-04-26T18:51:07.450Z,23.20
2019-04-26T18:53:54.857Z,23.20
2019-04-26T18:56:25.513Z,23.10
2019-04-26T18:58:56.148Z,23.10
2019-04-26T19:01:26.726Z,23.10
2019-04-26T19:04:00.652Z,23.10
2019-04-26T19:06:33.559Z,23.00
2019-04-26T19:09:05.720Z,23.00
2019-04-26T19:11:36.552Z,22.90
2019-04-26T19:14:24.330Z,22.90
2019-04-26T19:17:07.331Z,22.90
2019-04-26T19:19:55.210Z,22.90
2019-04-26T19:22:25.893Z,22.90
2019-04-26T19:24:57.645Z,22.80
2019-04-26T19:27:28.346Z,22.80
2019-04-26T19:30:04.319Z,22.70
2019-04-26T19:32:35.213Z,22.70
2019-04-26T19:35:07.563Z,22.60
2019-04-26T19:37:37.984Z,22.50
2019-04-26T19:40:09.958Z,22.50
2019-04-26T19:42:42.843Z,22.40
2019-04-26T19:45:25.460Z,22.30
2019-04-26T19:48:02.295Z,22.30
2019-04-26T19:51:02.118Z,22.30
2019-04-26T19:53:51.706Z,22.20
2019-04-26T19:56:27.794Z,22.10
2019-04-26T19:58:58.756Z,22.10
2019-04-26T20:01:29.588Z,22.10
2019-04-26T20:04:00.305Z,22.10
2019-04-26T20:06:32.238Z,22.10
2019-04-26T20:09:03.124Z,22.10
2019-04-26T20:11:35.469Z,22.10
2019-04-26T20:14:06.066Z,22.10
2019-04-26T20:16:40.827Z,22.00
2019-04-26T20:19:15.343Z,22.00
2019-04-26T20:21:41.450Z,22.00
2019-04-26T20:24:12.771Z,22.00
2019-04-26T20:26:44.677Z,21.90
2019-04-26T20:29:15.325Z,21.90
2019-04-26T20:32:02.161Z,21.90
2019-04-26T20:34:32.822Z,21.90
2019-04-26T20:37:03.338Z,21.80
2019-04-26T20:39:33.958Z,21.80
2019-04-26T20:42:04.611Z,21.80
2019-04-26T20:44:50.311Z,21.70
2019-04-26T20:47:14.244Z,21.70
2019-04-26T20:49:48.084Z,21.60
2019-04-26T20:52:16.507Z,21.50
2019-04-26T20:54:46.636Z,21.40
2019-04-26T20:57:17.287Z,21.30
2019-04-26T20:59:52.614Z,21.20
2019-04-26T21:02:20.855Z,21.20
2019-04-26T21:04:52.326Z,21.10
2019-04-26T21:07:23.110Z,20.90
2019-04-26T21:09:53.778Z,20.90
2019-04-26T21:12:24.385Z,20.80
2019-04-26T21:14:55.149Z,20.70
2019-04-26T21:17:27.735Z,20.70
2019-04-26T21:19:58.631Z,20.70
2019-04-26T21:22:29.407Z,20.70
2019-04-26T21:25:05.355Z,20.70
2019-04-26T21:27:45.896Z,20.70
2019-04-26T21:30:38.490Z,20.70
2019-04-26T21:33:20.499Z,20.60
2019-04-26T21:36:01.981Z,20.60
2019-04-26T21:38:44.327Z,20.60
2019-04-26T21:41:18.526Z,20.50
2019-04-26T21:43:49.047Z,20.50
2019-04-26T21:46:20.254Z,20.50
2019-04-26T21:48:53.377Z,20.40
2019-04-26T21:51:25.145Z,20.40
2019-04-26T21:53:55.710Z,20.40
2019-04-26T21:56:26.331Z,20.30
2019-04-26T21:58:57.006Z,20.30
2019-04-26T22:01:27.931Z,20.30
2019-04-26T22:03:58.575Z,20.30
2019-04-26T22:06:29.431Z,20.20
2019-04-26T22:09:06.871Z,20.10
2019-04-26T22:11:38.605Z,20.10
2019-04-26T22:14:21.604Z,20.00
2019-04-26T22:17:14.685Z,20.00
2019-04-26T22:20:12.880Z,20.00
2019-04-26T22:22:57.502Z,19.90
2019-04-26T22:25:30.337Z,19.90
2019-04-26T22:28:01.375Z,19.90
2019-04-26T22:30:33.315Z,19.90
2019-04-26T22:33:03.958Z,19.90
2019-04-26T22:35:34.470Z,19.80
2019-04-26T22:38:05.923Z,19.80
2019-04-26T22:40:36.454Z,19.80
2019-04-26T22:43:29.314Z,19.80
2019-04-26T22:46:19.170Z,19.70
2019-04-26T22:48:54.648Z,19.70
2019-04-26T22:51:23.134Z,19.70
2019-04-26T22:53:57.572Z,19.70
2019-04-26T22:56:25.970Z,19.60
2019-04-26T22:58:58.487Z,19.60
2019-04-26T23:01:28.618Z,19.60
2019-04-26T23:03:59.206Z,19.50
2019-04-26T23:06:29.680Z,19.50
2019-04-26T23:09:00.261Z,19.50
2019-04-26T23:11:33.365Z,19.50
2019-04-26T23:14:19.998Z,19.40
2019-04-26T23:17:15.503Z,19.40
2019-04-26T23:19:54.230Z,19.40
2019-04-26T23:22:30.981Z,19.30
2019-04-26T23:24:58.175Z,19.30
2019-04-26T23:27:29.090Z,19.20
2019-04-26T23:29:59.779Z,19.20
2019-04-26T23:32:30.620Z,19.20
2019-04-26T23:35:02.912Z,19.20
2019-04-26T23:37:33.415Z,19.10
2019-04-26T23:40:04.202Z,19.00
2019-04-26T23:42:34.779Z,19.00
2019-04-26T23:45:10.713Z,19.00
2019-04-26T23:47:39.044Z,18.90
2019-04-26T23:50:10.987Z,18.90
2019-04-26T23:52:41.510Z,19.00
2019-04-26T23:55:13.485Z,18.90
2019-04-26T23:57:44.278Z,18.80
